Time;durP1;ratioP1;P1;durP2;ratioP2;P2;SDS_P1;SDS_P2;PMS_P1;PMS_P2;Temp;Humidity;BMP_temperature;BMP_pressure;BME280_temperature;BME280_humidity;BME280_pressure;Samples;Min_cycle;Max_cycle;Signal;HPM_P1;HPM_P2
2024/04/07 00:02:40;;;;;;;39.28;25.77;;;;;;;;;;13044937;22;20365;-83
2024/04/07 00:07:44;;;;;;;37.90;25.67;;;;;;;;;;13044724;22;20837;-82
2024/04/07 00:12:46;;;;;;;37.83;25.38;;;;;;;;;;13043570;22;20365;-83
2024/04/07 00:17:48;;;;;;;36.58;25.30;;;;;;;;;;13043253;22;20377;-82
2024/04/07 00:22:52;;;;;;;34.60;24.67;;;;;;;;;;13043305;22;20670;-82
2024/04/07 00:27:55;;;;;;;37.40;25.70;;;;;;;;;;13042924;22;20724;-83
2024/04/07 00:32:58;;;;;;;35.90;24.97;;;;;;;;;;13044339;22;20377;-83
2024/04/07 00:38:01;;;;;;;35.63;24.63;;;;;;;;;;13042996;22;20381;-82
2024/04/07 00:43:07;;;;;;;38.20;25.40;;;;;;;;;;13042041;22;20365;-83
2024/04/07 00:48:10;;;;;;;34.47;23.57;;;;;;;;;;13042926;22;20365;-82
2024/04/07 00:53:15;;;;;;;36.40;23.58;;;;;;;;;;13043757;22;20415;-82
2024/04/07 00:58:19;;;;;;;35.38;23.77;;;;;;;;;;13037652;22;21117;-83
2024/04/07 01:03:22;;;;;;;38.55;25.58;;;;;;;;;;13038565;22;20384;-83
2024/04/07 01:08:26;;;;;;;31.67;23.40;;;;;;;;;;13043046;22;20361;-83
2024/04/07 01:13:28;;;;;;;34.72;23.27;;;;;;;;;;13042196;22;20365;-83
2024/04/07 01:18:31;;;;;;;36.45;23.52;;;;;;;;;;13041647;22;20384;-83
2024/04/07 01:23:35;;;;;;;32.67;22.42;;;;;;;;;;13041606;22;20788;-83
2024/04/07 01:28:37;;;;;;;33.97;22.80;;;;;;;;;;13041011;22;20418;-83
2024/04/07 01:33:39;;;;;;;33.05;22.98;;;;;;;;;;13042110;22;20780;-81
2024/04/07 01:38:43;;;;;;;33.63;21.85;;;;;;;;;;13042040;22;20868;-81
2024/04/07 01:43:46;;;;;;;32.95;22.40;;;;;;;;;;13041654;22;20851;-82
2024/04/07 01:48:48;;;;;;;33.47;22.20;;;;;;;;;;13041897;22;20824;-81
2024/04/07 01:53:52;;;;;;;32.10;21.95;;;;;;;;;;13039835;22;20372;-82
2024/04/07 01:58:54;;;;;;;32.40;21.65;;;;;;;;;;13040841;22;20868;-83
2024/04/07 02:03:57;;;;;;;34.03;22.05;;;;;;;;;;13041555;22;20732;-81
2024/04/07 02:09:01;;;;;;;33.37;22.13;;;;;;;;;;13040788;22;20810;-83
2024/04/07 02:14:03;;;;;;;31.20;22.65;;;;;;;;;;13039126;22;20357;-83
2024/04/07 02:19:06;;;;;;;31.67;22.75;;;;;;;;;;13040620;22;20381;-82
2024/04/07 02:24:10;;;;;;;31.50;22.38;;;;;;;;;;13038227;22;20368;-83
2024/04/07 02:29:13;;;;;;;32.17;21.57;;;;;;;;;;13041375;22;20434;-82
2024/04/07 02:34:15;;;;;;;33.07;22.27;;;;;;;;;;13040946;22;20365;-83
2024/04/07 02:39:21;;;;;;;30.70;21.35;;;;;;;;;;13040589;22;21034;-83
2024/04/07 02:48:04;;;;;;;32.88;22.63;;;;;;;;;;13040117;22;20914;-83
2024/04/07 02:49:46;;;;;;;33.97;22.88;;;;;;;;;;13040922;22;20365;-83
2024/04/07 02:54:49;;;;;;;31.67;21.88;;;;;;;;;;13040470;22;20999;-83
2024/04/07 02:59:52;;;;;;;34.05;22.92;;;;;;;;;;13040553;22;20377;-82
2024/04/07 03:04:54;;;;;;;33.88;22.95;;;;;;;;;;13039673;22;20361;-83
2024/04/07 03:09:58;;;;;;;36.17;23.75;;;;;;;;;;13040230;22;20403;-82
2024/04/07 03:15:03;;;;;;;36.03;24.23;;;;;;;;;;13040397;22;20836;-83
2024/04/07 03:20:07;;;;;;;37.95;24.50;;;;;;;;;;13041201;22;20385;-82
2024/04/07 03:25:11;;;;;;;41.10;25.43;;;;;;;;;;13041329;22;20425;-82
2024/04/07 03:30:13;;;;;;;37.60;25.70;;;;;;;;;;13040938;22;20484;-82
2024/04/07 03:35:16;;;;;;;38.33;25.33;;;;;;;;;;13041063;22;20361;-83
2024/04/07 03:40:20;;;;;;;39.63;25.40;;;;;;;;;;13040231;22;20897;-82
2024/04/07 03:45:22;;;;;;;39.87;25.83;;;;;;;;;;13040857;22;20845;-82
2024/04/07 03:50:25;;;;;;;60.70;38.13;;;;;;;;;;13044549;22;20361;-82
2024/04/07 03:55:29;;;;;;;74.80;50.33;;;;;;;;;;13043898;22;20357;-82
2024/04/07 04:00:34;;;;;;;70.55;47.40;;;;;;;;;;13044831;22;20395;-83
2024/04/07 04:05:36;;;;;;;73.60;47.40;;;;;;;;;;13044505;22;20869;-82
2024/04/07 04:10:40;;;;;;;78.43;49.83;;;;;;;;;;13044054;22;20361;-82
2024/04/07 04:15:43;;;;;;;96.70;61.67;;;;;;;;;;13043027;22;20365;-83
2024/04/07 04:20:45;;;;;;;92.03;58.78;;;;;;;;;;13042885;22;20423;-82
2024/04/07 04:25:53;;;;;;;72.25;45.95;;;;;;;;;;13043155;22;20372;-83
2024/04/07 04:30:56;;;;;;;71.87;43.53;;;;;;;;;;13044209;22;20361;-83
2024/04/07 04:35:59;;;;;;;68.00;40.00;;;;;;;;;;13044315;22;20361;-83
2024/04/07 04:41:03;;;;;;;57.53;34.67;;;;;;;;;;13043983;22;20365;-83
2024/04/07 04:46:08;;;;;;;52.03;32.77;;;;;;;;;;13043918;22;21008;-83
2024/04/07 04:51:11;;;;;;;55.90;32.67;;;;;;;;;;13043961;22;20395;-83
2024/04/07 04:56:15;;;;;;;60.17;32.65;;;;;;;;;;13042625;22;20410;-82
2024/04/07 05:01:17;;;;;;;63.45;34.20;;;;;;;;;;13043345;22;20372;-82
2024/04/07 05:06:20;;;;;;;61.45;34.47;;;;;;;;;;13043027;22;20361;-83
2024/04/07 05:11:24;;;;;;;60.90;34.85;;;;;;;;;;13043487;22;20426;-83
2024/04/07 05:16:26;;;;;;;64.17;35.63;;;;;;;;;;13042639;22;20386;-83
2024/04/07 05:21:29;;;;;;;65.50;35.55;;;;;;;;;;13042508;22;20422;-82
2024/04/07 05:26:33;;;;;;;61.25;34.60;;;;;;;;;;13042205;22;20466;-83
2024/04/07 05:31:35;;;;;;;61.53;34.92;;;;;;;;;;13042072;22;20536;-82
2024/04/07 05:36:38;;;;;;;58.10;32.83;;;;;;;;;;13042334;22;20373;-83
2024/04/07 05:41:42;;;;;;;55.57;32.43;;;;;;;;;;13042943;22;20748;-82
2024/04/07 05:46:44;;;;;;;52.67;32.30;;;;;;;;;;13042372;22;20365;-82
2024/04/07 05:51:46;;;;;;;57.77;31.63;;;;;;;;;;13041892;22;20365;-82
2024/04/07 05:56:50;;;;;;;51.15;30.88;;;;;;;;;;13040783;22;20430;-82
2024/04/07 06:01:53;;;;;;;51.07;30.80;;;;;;;;;;13041291;22;20418;-83
2024/04/07 06:06:56;;;;;;;49.97;30.52;;;;;;;;;;13041906;22;20426;-82
2024/04/07 06:12:00;;;;;;;46.88;29.33;;;;;;;;;;13041085;22;20373;-83
2024/04/07 06:17:02;;;;;;;46.90;28.33;;;;;;;;;;13042429;22;20369;-83
2024/04/07 06:22:05;;;;;;;47.70;29.33;;;;;;;;;;13041630;22;20426;-83
2024/04/07 06:27:08;;;;;;;48.65;27.95;;;;;;;;;;13041224;22;20361;-83
2024/04/07 06:32:11;;;;;;;49.25;30.00;;;;;;;;;;13041769;22;20372;-83
2024/04/07 06:37:13;;;;;;;55.47;32.35;;;;;;;;;;13040811;22;20404;-82
2024/04/07 06:42:27;;;;;;;49.33;29.38;;;;;;;;;;13036656;22;20906;-82
2024/04/07 06:47:29;;;;;;;45.80;28.05;;;;;;;;;;13039199;22;20365;-82
2024/04/07 06:52:32;;;;;;;47.50;29.23;;;;;;;;;;13039393;22;20365;-83
2024/04/07 06:57:35;;;;;;;50.78;30.63;;;;;;;;;;13039640;22;20898;-82
2024/04/07 07:02:38;;;;;;;47.97;29.33;;;;;;;;;;13040125;22;20361;-83
2024/04/07 07:07:40;;;;;;;51.17;30.83;;;;;;;;;;13039594;22;20361;-82
2024/04/07 07:12:44;;;;;;;52.30;30.40;;;;;;;;;;13034740;22;20361;-82
2024/04/07 07:17:46;;;;;;;48.47;29.70;;;;;;;;;;13033570;22;20860;-83
2024/04/07 07:22:49;;;;;;;49.17;29.40;;;;;;;;;;13037456;22;20860;-83
2024/04/07 07:27:54;;;;;;;48.05;30.38;;;;;;;;;;13036473;22;20360;-81
2024/04/07 07:32:57;;;;;;;49.33;30.30;;;;;;;;;;13037239;22;20365;-81
2024/04/07 07:37:59;;;;;;;50.78;29.88;;;;;;;;;;13035903;22;20435;-81
2024/04/07 07:43:04;;;;;;;48.15;29.58;;;;;;;;;;13036950;22;20841;-82
2024/04/07 07:48:07;;;;;;;50.70;30.73;;;;;;;;;;13039150;22;20373;-82
2024/04/07 07:53:10;;;;;;;51.75;29.42;;;;;;;;;;13036943;22;20702;-85
2024/04/07 07:58:14;;;;;;;50.23;30.47;;;;;;;;;;13038944;22;20755;-84
2024/04/07 08:03:16;;;;;;;47.60;28.88;;;;;;;;;;13040334;22;20361;-85
2024/04/07 08:08:21;;;;;;;46.70;29.70;;;;;;;;;;13041090;22;20418;-85
2024/04/07 08:13:25;;;;;;;47.05;30.02;;;;;;;;;;13039369;22;20365;-85
2024/04/07 08:18:30;;;;;;;45.77;28.97;;;;;;;;;;13037854;22;20490;-81
2024/04/07 08:23:32;;;;;;;48.67;29.97;;;;;;;;;;13034344;22;20678;-77
2024/04/07 08:28:36;;;;;;;46.30;29.63;;;;;;;;;;13034978;22;20364;-77
2024/04/07 08:33:38;;;;;;;49.60;30.70;;;;;;;;;;13035563;22;20395;-78
2024/04/07 08:38:41;;;;;;;47.00;29.75;;;;;;;;;;13032933;22;20446;-78
2024/04/07 08:43:47;;;;;;;48.83;29.98;;;;;;;;;;13034123;22;20458;-78
2024/04/07 08:48:51;;;;;;;49.23;28.57;;;;;;;;;;13034400;22;20361;-83
2024/04/07 08:53:58;;;;;;;46.58;29.15;;;;;;;;;;13035653;22;20368;-83
2024/04/07 08:59:06;;;;;;;45.72;28.88;;;;;;;;;;13031943;22;20845;-83
2024/04/07 09:04:08;;;;;;;45.90;25.70;;;;;;;;;;13030409;22;20426;-83
2024/04/07 09:09:11;;;;;;;39.88;23.60;;;;;;;;;;13032030;22;20399;-83
2024/04/07 09:14:15;;;;;;;37.25;23.10;;;;;;;;;;13032463;22;20395;-84
2024/04/07 09:19:19;;;;;;;39.70;23.02;;;;;;;;;;13027619;22;20384;-83
2024/04/07 09:24:21;;;;;;;37.58;22.13;;;;;;;;;;13028840;22;20413;-82
2024/04/07 09:29:25;;;;;;;36.92;22.13;;;;;;;;;;13028326;22;20681;-84
2024/04/07 09:34:30;;;;;;;33.22;22.63;;;;;;;;;;13023765;22;20442;-82
2024/04/07 09:39:32;;;;;;;35.40;21.97;;;;;;;;;;13021114;22;20380;-83
2024/04/07 09:44:37;;;;;;;33.97;20.60;;;;;;;;;;13024480;22;20442;-85
2024/04/07 09:49:40;;;;;;;32.47;20.67;;;;;;;;;;13033013;22;20365;-84
2024/04/07 09:54:47;;;;;;;30.88;19.33;;;;;;;;;;13033046;22;20361;-86
2024/04/07 09:59:52;;;;;;;30.93;19.93;;;;;;;;;;13034471;22;20385;-87
2024/04/07 10:04:58;;;;;;;34.03;21.43;;;;;;;;;;13030824;22;20418;-78
2024/04/07 10:10:00;;;;;;;29.73;19.30;;;;;;;;;;13027727;22;20900;-80
2024/04/07 10:15:04;;;;;;;32.67;19.80;;;;;;;;;;13030860;22;20361;-89
2024/04/07 10:20:08;;;;;;;30.58;20.33;;;;;;;;;;13031605;22;20381;-83
2024/04/07 10:25:11;;;;;;;31.60;19.40;;;;;;;;;;13024528;22;20966;-81
2024/04/07 10:30:19;;;;;;;29.92;18.27;;;;;;;;;;13022988;22;20454;-83
2024/04/07 10:35:22;;;;;;;32.25;20.73;;;;;;;;;;13027481;22;20357;-80
2024/04/07 10:40:25;;;;;;;29.40;18.98;;;;;;;;;;13031733;22;20384;-80
2024/04/07 10:45:29;;;;;;;32.47;18.58;;;;;;;;;;13028059;22;20361;-79
2024/04/07 10:50:32;;;;;;;32.05;18.98;;;;;;;;;;13030617;22;20430;-82
2024/04/07 10:55:34;;;;;;;29.13;20.48;;;;;;;;;;13033793;22;20886;-81
2024/04/07 11:00:40;;;;;;;26.97;18.43;;;;;;;;;;13036723;22;20438;-82
2024/04/07 11:05:43;;;;;;;27.63;18.10;;;;;;;;;;13035711;22;20364;-83
2024/04/07 11:10:51;;;;;;;28.83;18.92;;;;;;;;;;13038632;22;20364;-81
2024/04/07 11:15:55;;;;;;;25.73;17.85;;;;;;;;;;13037411;22;20361;-83
2024/04/07 11:21:00;;;;;;;24.05;17.55;;;;;;;;;;13034878;22;20929;-83
2024/04/07 11:26:02;;;;;;;26.65;17.35;;;;;;;;;;13036362;22;20361;-83
2024/04/07 11:31:09;;;;;;;26.27;18.02;;;;;;;;;;13035473;22;20501;-82
2024/04/07 11:36:12;;;;;;;29.77;17.35;;;;;;;;;;13032647;22;20782;-80
2024/04/07 11:41:14;;;;;;;26.13;17.25;;;;;;;;;;13032417;22;20446;-81
2024/04/07 11:46:18;;;;;;;26.92;16.75;;;;;;;;;;13034870;22;20497;-82
2024/04/07 11:51:20;;;;;;;21.95;16.15;;;;;;;;;;13037665;22;20395;-81
2024/04/07 11:56:24;;;;;;;23.93;16.33;;;;;;;;;;13036656;22;20361;-80
2024/04/07 12:01:29;;;;;;;25.27;16.15;;;;;;;;;;13034708;22;20430;-80
2024/04/07 12:06:31;;;;;;;26.85;17.05;;;;;;;;;;13033884;22;20361;-82
2024/04/07 12:11:34;;;;;;;21.70;15.00;;;;;;;;;;13035058;22;20365;-82
2024/04/07 12:16:38;;;;;;;23.98;16.90;;;;;;;;;;13035317;22;20403;-82
2024/04/07 12:21:41;;;;;;;22.08;14.93;;;;;;;;;;13031896;22;20438;-82
2024/04/07 12:31:58;;;;;;;24.73;16.02;;;;;;;;;;13027748;22;20771;-77
2024/04/07 12:37:00;;;;;;;20.30;14.63;;;;;;;;;;13035646;22;20361;-77
2024/04/07 12:42:03;;;;;;;23.40;15.82;;;;;;;;;;13032357;22;20410;-78
2024/04/07 12:47:07;;;;;;;20.55;15.45;;;;;;;;;;13033035;22;20365;-78
2024/04/07 12:52:10;;;;;;;21.50;14.75;;;;;;;;;;13035671;22;20365;-77
2024/04/07 12:57:12;;;;;;;20.70;14.30;;;;;;;;;;13038272;22;20869;-77
2024/04/07 13:02:16;;;;;;;19.13;13.63;;;;;;;;;;13034872;22;20937;-77
2024/04/07 13:07:19;;;;;;;20.00;14.13;;;;;;;;;;13033818;22;20365;-78
2024/04/07 13:12:21;;;;;;;20.57;13.90;;;;;;;;;;13033822;22;21515;-79
2024/04/07 13:17:25;;;;;;;20.15;13.27;;;;;;;;;;13030923;22;20365;-78
2024/04/07 13:22:28;;;;;;;20.45;13.82;;;;;;;;;;13033598;22;20380;-79
2024/04/07 13:27:30;;;;;;;20.38;14.27;;;;;;;;;;13034724;22;20403;-77
2024/04/07 13:32:34;;;;;;;17.33;12.63;;;;;;;;;;13034356;22;20365;-79
2024/04/07 13:37:37;;;;;;;17.42;12.60;;;;;;;;;;13035259;22;20360;-78
2024/04/07 13:42:41;;;;;;;20.33;13.70;;;;;;;;;;13034207;22;20381;-77
2024/04/07 13:47:45;;;;;;;16.92;11.77;;;;;;;;;;13032304;22;20405;-79
2024/04/07 13:52:48;;;;;;;26.02;12.95;;;;;;;;;;13035327;22;20365;-80
2024/04/07 13:57:50;;;;;;;16.45;12.68;;;;;;;;;;13034271;22;20426;-77
2024/04/07 14:02:54;;;;;;;18.25;11.20;;;;;;;;;;13035188;22;20510;-75
2024/04/07 14:07:57;;;;;;;16.40;10.93;;;;;;;;;;13010358;22;20361;-75
2024/04/07 14:12:59;;;;;;;18.33;12.82;;;;;;;;;;13038257;22;20426;-77
2024/04/07 14:18:04;;;;;;;15.00;11.93;;;;;;;;;;13034834;22;20372;-75
2024/04/07 14:23:07;;;;;;;17.37;10.83;;;;;;;;;;13029201;22;20505;-75
2024/04/07 14:28:09;;;;;;;30.43;14.50;;;;;;;;;;13026361;22;21019;-79
2024/04/07 14:33:13;;;;;;;23.90;11.27;;;;;;;;;;13029218;22;20435;-77
2024/04/07 14:38:16;;;;;;;15.40;11.80;;;;;;;;;;13026463;22;20670;-78
2024/04/07 14:43:19;;;;;;;17.80;12.70;;;;;;;;;;13024794;22;20389;-77
2024/04/07 14:48:23;;;;;;;17.33;11.88;;;;;;;;;;13024417;22;20928;-77
2024/04/07 14:53:25;;;;;;;15.20;11.57;;;;;;;;;;13025283;22;20372;-78
2024/04/07 14:58:28;;;;;;;17.40;11.25;;;;;;;;;;13024752;22;20788;-80
2024/04/07 15:03:33;;;;;;;14.57;10.93;;;;;;;;;;13028571;22;20380;-74
2024/04/07 15:08:35;;;;;;;16.07;11.17;;;;;;;;;;13028454;22;20445;-80
2024/04/07 15:13:38;;;;;;;15.45;12.05;;;;;;;;;;13023113;22;20442;-77
2024/04/07 15:18:42;;;;;;;14.93;10.23;;;;;;;;;;13023701;22;20380;-78
2024/04/07 15:23:45;;;;;;;14.02;10.55;;;;;;;;;;13023286;22;20389;-79
2024/04/07 15:28:47;;;;;;;13.57;10.73;;;;;;;;;;13021862;22;20871;-77
2024/04/07 15:33:52;;;;;;;12.80;10.87;;;;;;;;;;13021681;22;20384;-77
2024/04/07 15:38:54;;;;;;;14.60;11.10;;;;;;;;;;13060971;22;20468;-76
2024/04/07 15:43:56;;;;;;;16.13;10.60;;;;;;;;;;13090914;22;20375;-77
2024/04/07 15:49:00;;;;;;;13.32;10.85;;;;;;;;;;13092931;22;20371;-77
2024/04/07 15:54:03;;;;;;;13.25;10.25;;;;;;;;;;13091283;22;20379;-79
2024/04/07 15:59:05;;;;;;;13.90;11.70;;;;;;;;;;13093033;22;20688;-79
2024/04/07 16:04:09;;;;;;;13.73;10.80;;;;;;;;;;13096246;22;20776;-78
2024/04/07 16:09:11;;;;;;;14.18;10.32;;;;;;;;;;13093403;22;20863;-79
2024/04/07 16:14:14;;;;;;;13.67;10.77;;;;;;;;;;13094850;22;20429;-79
2024/04/07 16:19:18;;;;;;;17.40;10.47;;;;;;;;;;13091655;22;20401;-79
2024/04/07 16:24:20;;;;;;;14.45;10.52;;;;;;;;;;13097032;22;20680;-79
2024/04/07 16:29:25;;;;;;;16.00;11.00;;;;;;;;;;13093763;22;20375;-78
2024/04/07 16:34:30;;;;;;;14.20;10.32;;;;;;;;;;13092498;22;20432;-79
2024/04/07 16:39:33;;;;;;;13.75;10.07;;;;;;;;;;13091892;22;20379;-79
2024/04/07 16:44:36;;;;;;;13.38;10.00;;;;;;;;;;13091931;22;20379;-78
2024/04/07 16:49:40;;;;;;;15.00;10.20;;;;;;;;;;13091856;22;20379;-79
2024/04/07 16:54:42;;;;;;;14.50;11.17;;;;;;;;;;13091241;22;20375;-80
2024/04/07 16:59:46;;;;;;;15.02;10.27;;;;;;;;;;13091168;22;20371;-80
2024/04/07 17:04:50;;;;;;;12.60;10.27;;;;;;;;;;13094071;22;20830;-79
2024/04/07 17:09:52;;;;;;;15.70;10.67;;;;;;;;;;13090732;22;20379;-78
2024/04/07 17:14:55;;;;;;;16.10;10.40;;;;;;;;;;13091226;22;20379;-80
2024/04/07 17:19:58;;;;;;;13.95;10.70;;;;;;;;;;13093382;22;20370;-78
2024/04/07 17:25:02;;;;;;;16.42;11.05;;;;;;;;;;13095854;22;21003;-79
2024/04/07 17:30:05;;;;;;;12.90;10.52;;;;;;;;;;13091394;22;20461;-79
2024/04/07 17:35:09;;;;;;;13.30;10.20;;;;;;;;;;13094909;22;20375;-79
2024/04/07 17:40:12;;;;;;;14.27;11.23;;;;;;;;;;13091700;22;20421;-78
2024/04/07 17:45:21;;;;;;;12.20;10.88;;;;;;;;;;13091733;22;20495;-78
2024/04/07 17:50:25;;;;;;;16.50;10.90;;;;;;;;;;13093475;22;20378;-78
2024/04/07 17:55:27;;;;;;;13.95;10.68;;;;;;;;;;13094731;22;20375;-78
2024/04/07 18:00:30;;;;;;;13.87;10.40;;;;;;;;;;13115939;22;20937;-78
2024/04/07 18:05:35;;;;;;;23.67;14.83;;;;;;;;;;13096443;22;20362;-78
2024/04/07 18:10:37;;;;;;;15.15;10.80;;;;;;;;;;13098237;22;20363;-77
2024/04/07 18:15:40;;;;;;;17.10;11.20;;;;;;;;;;13096337;22;20919;-78
2024/04/07 18:20:44;;;;;;;15.75;12.13;;;;;;;;;;13093836;22;20395;-79
2024/04/07 18:25:47;;;;;;;16.53;11.67;;;;;;;;;;13096190;22;20367;-79
2024/04/07 18:30:50;;;;;;;18.87;12.07;;;;;;;;;;13089801;22;20711;-78
2024/04/07 18:35:54;;;;;;;18.23;11.88;;;;;;;;;;13090408;22;20375;-78
2024/04/07 18:40:56;;;;;;;16.48;12.02;;;;;;;;;;12962401;22;20432;-78
2024/04/07 18:45:59;;;;;;;16.40;11.75;;;;;;;;;;12963709;22;20383;-77
2024/04/07 18:51:03;;;;;;;17.38;13.00;;;;;;;;;;12964494;22;20409;-77
2024/04/07 18:56:06;;;;;;;16.33;12.07;;;;;;;;;;12965590;22;20471;-78
2024/04/07 19:01:13;;;;;;;16.10;12.47;;;;;;;;;;12965191;22;20378;-77
2024/04/07 19:06:17;;;;;;;19.08;13.55;;;;;;;;;;12963849;22;20393;-77
2024/04/07 19:11:20;;;;;;;23.48;15.80;;;;;;;;;;12959884;22;20370;-77
2024/04/07 19:16:25;;;;;;;22.88;16.40;;;;;;;;;;12963652;22;20424;-78
2024/04/07 19:21:29;;;;;;;26.63;17.33;;;;;;;;;;12963781;22;20444;-78
2024/04/07 19:26:37;;;;;;;25.05;17.45;;;;;;;;;;12966606;22;20440;-78
2024/04/07 19:31:40;;;;;;;25.08;17.48;;;;;;;;;;12966251;22;20382;-78
2024/04/07 19:36:44;;;;;;;23.60;18.00;;;;;;;;;;12987932;22;20374;-77
2024/04/07 19:41:49;;;;;;;24.27;16.83;;;;;;;;;;13093218;22;20688;-77
2024/04/07 19:46:53;;;;;;;26.87;19.10;;;;;;;;;;13093877;22;20432;-78
2024/04/07 19:51:57;;;;;;;28.45;19.60;;;;;;;;;;13093221;22;20363;-77
2024/04/07 19:57:02;;;;;;;29.70;21.07;;;;;;;;;;13090834;22;20379;-77
2024/04/07 20:02:06;;;;;;;31.03;22.13;;;;;;;;;;13092923;22;20712;-78
2024/04/07 20:07:11;;;;;;;33.78;23.05;;;;;;;;;;13095612;22;20371;-77
2024/04/07 20:12:15;;;;;;;33.53;22.80;;;;;;;;;;13092797;22;20424;-78
2024/04/07 20:17:19;;;;;;;31.30;22.53;;;;;;;;;;13096028;22;20417;-77
2024/04/07 20:22:23;;;;;;;33.88;23.52;;;;;;;;;;13094408;22;20436;-77
2024/04/07 20:27:26;;;;;;;30.97;22.97;;;;;;;;;;13092212;22;20452;-78
2024/04/07 20:32:30;;;;;;;32.03;23.00;;;;;;;;;;13094343;22;20379;-77
2024/04/07 20:37:35;;;;;;;34.95;22.88;;;;;;;;;;13093619;22;20375;-77
2024/04/07 20:42:38;;;;;;;33.07;23.27;;;;;;;;;;13093484;22;20387;-78
2024/04/07 20:47:42;;;;;;;31.93;22.83;;;;;;;;;;13092151;22;20452;-77
2024/04/07 20:52:47;;;;;;;33.20;23.25;;;;;;;;;;13098018;22;20448;-77
2024/04/07 20:57:50;;;;;;;36.77;22.53;;;;;;;;;;13094599;22;20374;-77
2024/04/07 21:02:55;;;;;;;34.30;23.45;;;;;;;;;;13096310;22;20383;-77
2024/04/07 21:08:00;;;;;;;36.13;24.58;;;;;;;;;;13096519;22;20375;-78
2024/04/07 21:13:04;;;;;;;36.38;25.52;;;;;;;;;;13094177;22;20379;-77
2024/04/07 21:18:07;;;;;;;34.47;24.55;;;;;;;;;;13095403;22;20408;-78
2024/04/07 21:23:11;;;;;;;38.03;26.23;;;;;;;;;;13095664;22;20862;-78
2024/04/07 21:28:16;;;;;;;37.75;25.42;;;;;;;;;;13096108;22;20386;-78
2024/04/07 21:33:19;;;;;;;37.40;24.80;;;;;;;;;;13096302;22;20375;-78
2024/04/07 21:38:23;;;;;;;37.33;26.45;;;;;;;;;;13096080;22;20456;-77
2024/04/07 21:43:26;;;;;;;42.07;27.63;;;;;;;;;;13096464;22;20379;-78
2024/04/07 21:48:29;;;;;;;43.95;27.98;;;;;;;;;;13096362;22;20379;-78
2024/04/07 21:53:33;;;;;;;39.38;26.35;;;;;;;;;;13096358;22;20518;-77
2024/04/07 21:58:35;;;;;;;39.20;27.23;;;;;;;;;;13099215;22;20432;-78
2024/04/07 22:03:38;;;;;;;40.13;27.73;;;;;;;;;;13106440;22;20695;-77
2024/04/07 22:08:41;;;;;;;39.53;27.07;;;;;;;;;;13105153;22;20364;-78
2024/04/07 22:13:44;;;;;;;38.17;26.35;;;;;;;;;;13104571;22;20371;-77
2024/04/07 22:18:46;;;;;;;39.08;27.42;;;;;;;;;;13105126;22;20363;-77
2024/04/07 22:23:50;;;;;;;36.60;26.45;;;;;;;;;;13105032;22;20432;-78
2024/04/07 22:28:53;;;;;;;37.30;26.33;;;;;;;;;;13100708;22;20359;-78
2024/04/07 22:33:55;;;;;;;39.83;27.10;;;;;;;;;;13106326;22;20352;-77
2024/04/07 22:38:59;;;;;;;36.93;25.60;;;;;;;;;;13105527;22;20863;-77
2024/04/07 22:44:02;;;;;;;39.40;25.80;;;;;;;;;;13104685;22;20379;-77
2024/04/07 22:49:04;;;;;;;39.00;26.02;;;;;;;;;;13104999;22;20417;-78
2024/04/07 22:54:08;;;;;;;37.03;25.77;;;;;;;;;;13103711;22;20359;-78
2024/04/07 22:59:11;;;;;;;38.67;26.53;;;;;;;;;;13104036;22;20424;-77
2024/04/07 23:04:13;;;;;;;39.50;26.98;;;;;;;;;;13105735;22;20379;-78
2024/04/07 23:09:17;;;;;;;37.78;27.35;;;;;;;;;;13104361;22;20355;-78
2024/04/07 23:14:19;;;;;;;37.17;26.90;;;;;;;;;;13103858;22;20892;-77
2024/04/07 23:19:23;;;;;;;38.63;26.15;;;;;;;;;;13106096;22;20359;-77
2024/04/07 23:24:27;;;;;;;37.07;28.73;;;;;;;;;;13104867;22;20379;-77
2024/04/07 23:29:30;;;;;;;41.33;28.20;;;;;;;;;;13125271;22;20451;-77
2024/04/07 23:34:33;;;;;;;37.63;26.88;;;;;;;;;;13104853;22;20386;-77
2024/04/07 23:39:37;;;;;;;43.58;29.00;;;;;;;;;;13103965;22;20367;-78
2024/04/07 23:44:39;;;;;;;42.88;29.92;;;;;;;;;;13103741;22;20441;-77
2024/04/07 23:49:43;;;;;;;38.85;28.42;;;;;;;;;;13102644;22;20360;-77
2024/04/07 23:54:47;;;;;;;40.45;27.95;;;;;;;;;;13105117;22;20363;-77
2024/04/07 23:59:49;;;;;;;39.72;27.83;;;;;;;;;;13103835;22;20376;-76
